sensor_id;sensor_type;location;lat;lon;timestamp;temperature;humidity
51839;DHT22;37886;53.174;6.368;2023-10-08T00:02:17;13.70;99.90
51839;DHT22;37886;53.174;6.368;2023-10-08T00:04:48;13.70;99.90
51839;DHT22;37886;53.174;6.368;2023-10-08T00:07:17;13.70;99.90
51839;DHT22;37886;53.174;6.368;2023-10-08T00:09:50;13.60;99.90
51839;DHT22;37886;53.174;6.368;2023-10-08T00:12:22;13.60;99.90
51839;DHT22;37886;53.174;6.368;2023-10-08T00:14:49;13.60;99.90
51839;DHT22;37886;53.174;6.368;2023-10-08T00:17:16;13.60;99.90
51839;DHT22;37886;53.174;6.368;2023-10-08T00:19:44;13.50;99.90
51839;DHT22;37886;53.174;6.368;2023-10-08T00:22:11;13.50;99.90
51839;DHT22;37886;53.174;6.368;2023-10-08T00:24:39;13.40;99.90
51839;DHT22;37886;53.174;6.368;2023-10-08T00:27:08;13.40;99.90
51839;DHT22;37886;53.174;6.368;2023-10-08T00:29:34;13.40;99.90
51839;DHT22;37886;53.174;6.368;2023-10-08T00:32:00;13.50;99.90
51839;DHT22;37886;53.174;6.368;2023-10-08T00:34:37;13.40;99.90
51839;DHT22;37886;53.174;6.368;2023-10-08T00:37:07;13.50;99.90
51839;DHT22;37886;53.174;6.368;2023-10-08T00:39:35;13.50;99.90
51839;DHT22;37886;53.174;6.368;2023-10-08T00:42:04;13.50;99.90
51839;DHT22;37886;53.174;6.368;2023-10-08T00:44:31;13.50;99.90
51839;DHT22;37886;53.174;6.368;2023-10-08T00:47:01;13.50;99.90
51839;DHT22;37886;53.174;6.368;2023-10-08T00:49:27;13.50;99.90
51839;DHT22;37886;53.174;6.368;2023-10-08T00:52:14;13.50;99.90
51839;DHT22;37886;53.174;6.368;2023-10-08T00:54:42;13.50;99.90
51839;DHT22;37886;53.174;6.368;2023-10-08T00:57:16;13.50;99.90
51839;DHT22;37886;53.174;6.368;2023-10-08T00:59:46;13.50;99.90
51839;DHT22;37886;53.174;6.368;2023-10-08T01:02:22;13.50;99.90
51839;DHT22;37886;53.174;6.368;2023-10-08T01:04:52;13.50;99.90
51839;DHT22;37886;53.174;6.368;2023-10-08T01:07:21;13.50;99.90
51839;DHT22;37886;53.174;6.368;2023-10-08T01:09:47;13.50;99.90
51839;DHT22;37886;53.174;6.368;2023-10-08T01:12:21;13.50;99.90
51839;DHT22;37886;53.174;6.368;2023-10-08T01:14:59;13.50;99.90
51839;DHT22;37886;53.174;6.368;2023-10-08T01:17:48;13.50;99.90
51839;DHT22;37886;53.174;6.368;2023-10-08T01:20:24;13.60;99.90
51839;DHT22;37886;53.174;6.368;2023-10-08T01:23:01;13.50;99.90
51839;DHT22;37886;53.174;6.368;2023-10-08T01:25:29;13.60;99.90
51839;DHT22;37886;53.174;6.368;2023-10-08T01:27:56;13.50;99.90
51839;DHT22;37886;53.174;6.368;2023-10-08T01:30:26;13.60;99.90
51839;DHT22;37886;53.174;6.368;2023-10-08T01:32:52;13.60;99.90
51839;DHT22;37886;53.174;6.368;2023-10-08T01:35:17;13.60;99.90
51839;DHT22;37886;53.174;6.368;2023-10-08T01:37:52;13.60;99.90
51839;DHT22;37886;53.174;6.368;2023-10-08T01:40:21;13.60;99.90
51839;DHT22;37886;53.174;6.368;2023-10-08T01:42:50;13.60;99.90
51839;DHT22;37886;53.174;6.368;2023-10-08T01:45:17;13.50;99.90
51839;DHT22;37886;53.174;6.368;2023-10-08T01:47:44;13.50;99.90
51839;DHT22;37886;53.174;6.368;2023-10-08T01:50:10;13.50;99.90
51839;DHT22;37886;53.174;6.368;2023-10-08T01:52:48;13.50;99.90
51839;DHT22;37886;53.174;6.368;2023-10-08T01:55:13;13.50;99.90
51839;DHT22;37886;53.174;6.368;2023-10-08T01:57:47;13.50;99.90
51839;DHT22;37886;53.174;6.368;2023-10-08T02:00:13;13.50;99.90
51839;DHT22;37886;53.174;6.368;2023-10-08T02:02:52;13.50;99.90
51839;DHT22;37886;53.174;6.368;2023-10-08T02:05:19;13.50;99.90
51839;DHT22;37886;53.174;6.368;2023-10-08T02:07:46;13.50;99.90
51839;DHT22;37886;53.174;6.368;2023-10-08T02:10:13;13.50;99.90
51839;DHT22;37886;53.174;6.368;2023-10-08T02:12:40;13.50;99.90
51839;DHT22;37886;53.174;6.368;2023-10-08T02:15:07;13.50;99.90
51839;DHT22;37886;53.174;6.368;2023-10-08T02:17:34;13.50;99.90
51839;DHT22;37886;53.174;6.368;2023-10-08T02:20:00;13.40;99.90
51839;DHT22;37886;53.174;6.368;2023-10-08T02:22:30;13.40;99.90
51839;DHT22;37886;53.174;6.368;2023-10-08T02:24:55;13.40;99.90
51839;DHT22;37886;53.174;6.368;2023-10-08T02:27:27;13.40;99.90
51839;DHT22;37886;53.174;6.368;2023-10-08T02:29:52;13.40;99.90
51839;DHT22;37886;53.174;6.368;2023-10-08T02:32:18;13.40;99.90
51839;DHT22;37886;53.174;6.368;2023-10-08T02:34:44;13.40;99.90
51839;DHT22;37886;53.174;6.368;2023-10-08T02:37:10;13.40;99.90
51839;DHT22;37886;53.174;6.368;2023-10-08T02:39:38;13.40;99.90
51839;DHT22;37886;53.174;6.368;2023-10-08T02:42:06;13.40;99.90
51839;DHT22;37886;53.174;6.368;2023-10-08T02:44:36;13.40;99.90
51839;DHT22;37886;53.174;6.368;2023-10-08T02:47:09;13.40;99.90
51839;DHT22;37886;53.174;6.368;2023-10-08T02:49:37;13.50;99.90
51839;DHT22;37886;53.174;6.368;2023-10-08T02:52:06;13.40;99.90
51839;DHT22;37886;53.174;6.368;2023-10-08T02:54:34;13.30;99.90
51839;DHT22;37886;53.174;6.368;2023-10-08T02:57:03;13.40;99.90
51839;DHT22;37886;53.174;6.368;2023-10-08T02:59:33;13.40;99.90
51839;DHT22;37886;53.174;6.368;2023-10-08T03:02:13;13.40;99.90
51839;DHT22;37886;53.174;6.368;2023-10-08T03:04:50;13.40;99.90
51839;DHT22;37886;53.174;6.368;2023-10-08T03:07:18;13.40;99.90
51839;DHT22;37886;53.174;6.368;2023-10-08T03:09:51;13.40;99.90
51839;DHT22;37886;53.174;6.368;2023-10-08T03:12:28;13.50;99.90
51839;DHT22;37886;53.174;6.368;2023-10-08T03:15:01;13.50;99.90
51839;DHT22;37886;53.174;6.368;2023-10-08T03:17:38;13.50;99.90
51839;DHT22;37886;53.174;6.368;2023-10-08T03:20:05;13.50;99.90
51839;DHT22;37886;53.174;6.368;2023-10-08T03:22:51;13.50;99.90
51839;DHT22;37886;53.174;6.368;2023-10-08T03:25:16;13.60;99.90
51839;DHT22;37886;53.174;6.368;2023-10-08T03:27:43;13.60;99.90
51839;DHT22;37886;53.174;6.368;2023-10-08T03:30:09;13.60;99.90
51839;DHT22;37886;53.174;6.368;2023-10-08T03:32:42;13.60;99.90
51839;DHT22;37886;53.174;6.368;2023-10-08T03:35:10;13.60;99.90
51839;DHT22;37886;53.174;6.368;2023-10-08T03:37:37;13.60;99.90
51839;DHT22;37886;53.174;6.368;2023-10-08T03:40:12;13.60;99.90
51839;DHT22;37886;53.174;6.368;2023-10-08T03:42:56;13.60;99.90
51839;DHT22;37886;53.174;6.368;2023-10-08T03:45:22;13.50;99.90
51839;DHT22;37886;53.174;6.368;2023-10-08T03:48:06;13.50;99.90
51839;DHT22;37886;53.174;6.368;2023-10-08T03:50:36;13.50;99.90
51839;DHT22;37886;53.174;6.368;2023-10-08T03:53:09;13.50;99.90
51839;DHT22;37886;53.174;6.368;2023-10-08T03:55:38;13.50;99.90
51839;DHT22;37886;53.174;6.368;2023-10-08T03:58:09;13.50;99.90
51839;DHT22;37886;53.174;6.368;2023-10-08T04:01:06;13.50;99.90
51839;DHT22;37886;53.174;6.368;2023-10-08T04:03:35;13.50;99.90
51839;DHT22;37886;53.174;6.368;2023-10-08T04:06:21;13.50;99.90
51839;DHT22;37886;53.174;6.368;2023-10-08T04:09:03;13.50;99.90
51839;DHT22;37886;53.174;6.368;2023-10-08T04:11:38;13.50;99.90
51839;DHT22;37886;53.174;6.368;2023-10-08T04:14:21;13.50;99.90
51839;DHT22;37886;53.174;6.368;2023-10-08T04:16:47;13.50;99.90
51839;DHT22;37886;53.174;6.368;2023-10-08T04:19:18;13.50;99.90
51839;DHT22;37886;53.174;6.368;2023-10-08T04:21:44;13.60;99.90
51839;DHT22;37886;53.174;6.368;2023-10-08T04:24:11;13.60;99.90
51839;DHT22;37886;53.174;6.368;2023-10-08T04:26:40;13.60;99.90
51839;DHT22;37886;53.174;6.368;2023-10-08T04:29:06;13.60;99.90
51839;DHT22;37886;53.174;6.368;2023-10-08T04:31:35;13.60;99.90
51839;DHT22;37886;53.174;6.368;2023-10-08T04:34:12;13.60;99.90
51839;DHT22;37886;53.174;6.368;2023-10-08T04:36:49;13.60;99.90
51839;DHT22;37886;53.174;6.368;2023-10-08T04:39:23;13.60;99.90
51839;DHT22;37886;53.174;6.368;2023-10-08T04:42:01;13.60;99.90
51839;DHT22;37886;53.174;6.368;2023-10-08T04:44:37;13.60;99.90
51839;DHT22;37886;53.174;6.368;2023-10-08T04:47:05;13.60;99.90
51839;DHT22;37886;53.174;6.368;2023-10-08T04:49:32;13.60;99.90
51839;DHT22;37886;53.174;6.368;2023-10-08T04:52:02;13.60;99.90
51839;DHT22;37886;53.174;6.368;2023-10-08T04:54:39;13.60;99.90
51839;DHT22;37886;53.174;6.368;2023-10-08T04:57:07;13.60;99.90
51839;DHT22;37886;53.174;6.368;2023-10-08T04:59:33;13.60;99.90
51839;DHT22;37886;53.174;6.368;2023-10-08T05:02:08;13.60;99.90
51839;DHT22;37886;53.174;6.368;2023-10-08T05:04:59;13.60;99.90
51839;DHT22;37886;53.174;6.368;2023-10-08T05:07:37;13.50;99.90
51839;DHT22;37886;53.174;6.368;2023-10-08T05:10:15;13.50;99.90
51839;DHT22;37886;53.174;6.368;2023-10-08T05:12:49;13.50;99.90
51839;DHT22;37886;53.174;6.368;2023-10-08T05:15:33;13.50;99.90
51839;DHT22;37886;53.174;6.368;2023-10-08T05:18:03;13.50;99.90
51839;DHT22;37886;53.174;6.368;2023-10-08T05:20:45;13.50;99.90
51839;DHT22;37886;53.174;6.368;2023-10-08T05:23:11;13.50;99.90
51839;DHT22;37886;53.174;6.368;2023-10-08T05:25:51;13.50;99.90
51839;DHT22;37886;53.174;6.368;2023-10-08T05:28:33;13.50;99.90
51839;DHT22;37886;53.174;6.368;2023-10-08T05:31:13;13.50;99.90
51839;DHT22;37886;53.174;6.368;2023-10-08T05:33:39;13.50;99.90
51839;DHT22;37886;53.174;6.368;2023-10-08T05:36:24;13.50;99.90
51839;DHT22;37886;53.174;6.368;2023-10-08T05:39:22;13.50;99.90
51839;DHT22;37886;53.174;6.368;2023-10-08T05:41:51;13.40;99.90
51839;DHT22;37886;53.174;6.368;2023-10-08T05:44:17;13.40;99.90
51839;DHT22;37886;53.174;6.368;2023-10-08T05:46:43;13.40;99.90
51839;DHT22;37886;53.174;6.368;2023-10-08T05:49:21;13.40;99.90
51839;DHT22;37886;53.174;6.368;2023-10-08T05:51:56;13.40;99.90
51839;DHT22;37886;53.174;6.368;2023-10-08T05:54:25;13.40;99.90
51839;DHT22;37886;53.174;6.368;2023-10-08T05:59:45;13.40;99.90
51839;DHT22;37886;53.174;6.368;2023-10-08T06:02:20;13.40;99.90
51839;DHT22;37886;53.174;6.368;2023-10-08T06:05:02;13.30;99.90
51839;DHT22;37886;53.174;6.368;2023-10-08T06:07:46;13.40;99.90
51839;DHT22;37886;53.174;6.368;2023-10-08T06:10:25;13.40;99.90
51839;DHT22;37886;53.174;6.368;2023-10-08T06:13:05;13.30;99.90
51839;DHT22;37886;53.174;6.368;2023-10-08T06:15:45;13.30;99.90
51839;DHT22;37886;53.174;6.368;2023-10-08T06:18:32;13.30;99.90
51839;DHT22;37886;53.174;6.368;2023-10-08T06:21:02;13.30;99.90
51839;DHT22;37886;53.174;6.368;2023-10-08T06:23:35;13.30;99.90
51839;DHT22;37886;53.174;6.368;2023-10-08T06:26:02;13.30;99.90
51839;DHT22;37886;53.174;6.368;2023-10-08T06:28:44;13.30;99.90
51839;DHT22;37886;53.174;6.368;2023-10-08T06:31:10;13.30;99.90
51839;DHT22;37886;53.174;6.368;2023-10-08T06:33:43;13.40;99.90
51839;DHT22;37886;53.174;6.368;2023-10-08T06:36:10;13.40;99.90
51839;DHT22;37886;53.174;6.368;2023-10-08T06:38:36;13.50;99.90
51839;DHT22;37886;53.174;6.368;2023-10-08T06:41:05;13.40;99.90
51839;DHT22;37886;53.174;6.368;2023-10-08T06:43:44;13.50;99.90
51839;DHT22;37886;53.174;6.368;2023-10-08T06:46:30;13.60;99.90
51839;DHT22;37886;53.174;6.368;2023-10-08T06:49:00;13.60;99.90
51839;DHT22;37886;53.174;6.368;2023-10-08T06:51:25;13.70;99.90
51839;DHT22;37886;53.174;6.368;2023-10-08T06:53:52;13.80;99.90
51839;DHT22;37886;53.174;6.368;2023-10-08T06:56:20;13.90;99.90
51839;DHT22;37886;53.174;6.368;2023-10-08T06:58:46;13.90;99.90
51839;DHT22;37886;53.174;6.368;2023-10-08T07:01:20;13.90;99.90
51839;DHT22;37886;53.174;6.368;2023-10-08T07:03:56;13.80;99.90
51839;DHT22;37886;53.174;6.368;2023-10-08T07:06:29;13.80;99.90
51839;DHT22;37886;53.174;6.368;2023-10-08T07:09:00;13.90;99.90
51839;DHT22;37886;53.174;6.368;2023-10-08T07:14:39;14.10;99.90
51839;DHT22;37886;53.174;6.368;2023-10-08T07:17:07;14.10;99.90
51839;DHT22;37886;53.174;6.368;2023-10-08T07:19:34;14.20;99.90
51839;DHT22;37886;53.174;6.368;2023-10-08T07:22:08;14.30;99.90
51839;DHT22;37886;53.174;6.368;2023-10-08T07:24:54;14.30;99.90
51839;DHT22;37886;53.174;6.368;2023-10-08T07:27:20;14.30;99.90
51839;DHT22;37886;53.174;6.368;2023-10-08T07:29:48;14.40;99.90
51839;DHT22;37886;53.174;6.368;2023-10-08T07:32:13;14.40;99.90
51839;DHT22;37886;53.174;6.368;2023-10-08T07:34:44;14.20;99.90
51839;DHT22;37886;53.174;6.368;2023-10-08T07:37:09;14.10;99.90
51839;DHT22;37886;53.174;6.368;2023-10-08T07:39:37;14.10;99.90
51839;DHT22;37886;53.174;6.368;2023-10-08T07:42:10;14.20;99.90
51839;DHT22;37886;53.174;6.368;2023-10-08T07:44:36;14.30;99.90
51839;DHT22;37886;53.174;6.368;2023-10-08T07:47:04;14.30;99.90
51839;DHT22;37886;53.174;6.368;2023-10-08T07:49:33;14.30;99.90
51839;DHT22;37886;53.174;6.368;2023-10-08T07:52:01;14.30;99.90
51839;DHT22;37886;53.174;6.368;2023-10-08T07:54:27;14.30;99.90
51839;DHT22;37886;53.174;6.368;2023-10-08T07:56:56;14.30;99.90
51839;DHT22;37886;53.174;6.368;2023-10-08T07:59:41;14.20;99.90
51839;DHT22;37886;53.174;6.368;2023-10-08T08:02:08;14.30;99.90
51839;DHT22;37886;53.174;6.368;2023-10-08T08:04:40;14.20;99.90
51839;DHT22;37886;53.174;6.368;2023-10-08T08:07:07;14.20;99.90
51839;DHT22;37886;53.174;6.368;2023-10-08T08:09:33;14.10;99.90
51839;DHT22;37886;53.174;6.368;2023-10-08T08:12:06;14.10;99.90
51839;DHT22;37886;53.174;6.368;2023-10-08T08:14:36;14.10;99.90
51839;DHT22;37886;53.174;6.368;2023-10-08T08:17:05;14.20;99.90
51839;DHT22;37886;53.174;6.368;2023-10-08T08:19:49;14.20;99.90
51839;DHT22;37886;53.174;6.368;2023-10-08T08:22:16;14.30;99.90
51839;DHT22;37886;53.174;6.368;2023-10-08T08:27:19;14.50;99.90
51839;DHT22;37886;53.174;6.368;2023-10-08T08:29:57;14.60;99.90
51839;DHT22;37886;53.174;6.368;2023-10-08T08:32:39;14.70;99.90
51839;DHT22;37886;53.174;6.368;2023-10-08T08:35:09;14.70;99.90
51839;DHT22;37886;53.174;6.368;2023-10-08T08:37:35;14.90;99.90
51839;DHT22;37886;53.174;6.368;2023-10-08T08:40:02;15.00;99.90
51839;DHT22;37886;53.174;6.368;2023-10-08T08:42:49;15.10;99.90
51839;DHT22;37886;53.174;6.368;2023-10-08T08:45:20;15.00;99.90
51839;DHT22;37886;53.174;6.368;2023-10-08T08:47:46;15.20;99.90
51839;DHT22;37886;53.174;6.368;2023-10-08T08:50:12;15.00;99.90
51839;DHT22;37886;53.174;6.368;2023-10-08T08:52:39;14.90;99.90
51839;DHT22;37886;53.174;6.368;2023-10-08T08:55:06;15.00;99.90
51839;DHT22;37886;53.174;6.368;2023-10-08T08:57:39;15.10;99.90
51839;DHT22;37886;53.174;6.368;2023-10-08T09:00:08;15.20;99.90
51839;DHT22;37886;53.174;6.368;2023-10-08T09:02:39;15.20;99.90
51839;DHT22;37886;53.174;6.368;2023-10-08T09:05:05;15.20;99.90
51839;DHT22;37886;53.174;6.368;2023-10-08T09:08:01;15.10;99.90
51839;DHT22;37886;53.174;6.368;2023-10-08T09:10:32;15.10;99.90
51839;DHT22;37886;53.174;6.368;2023-10-08T09:13:06;15.00;99.90
51839;DHT22;37886;53.174;6.368;2023-10-08T09:15:37;15.10;99.90
51839;DHT22;37886;53.174;6.368;2023-10-08T09:18:03;15.10;99.90
51839;DHT22;37886;53.174;6.368;2023-10-08T09:20:30;15.30;99.90
51839;DHT22;37886;53.174;6.368;2023-10-08T09:23:14;15.40;99.90
51839;DHT22;37886;53.174;6.368;2023-10-08T09:25:44;15.40;99.90
51839;DHT22;37886;53.174;6.368;2023-10-08T09:28:11;15.60;99.90
51839;DHT22;37886;53.174;6.368;2023-10-08T09:30:40;15.80;99.90
51839;DHT22;37886;53.174;6.368;2023-10-08T09:33:07;15.80;99.90
51839;DHT22;37886;53.174;6.368;2023-10-08T09:35:34;15.80;99.90
51839;DHT22;37886;53.174;6.368;2023-10-08T09:38:02;15.90;99.90
51839;DHT22;37886;53.174;6.368;2023-10-08T09:40:29;16.00;99.90
51839;DHT22;37886;53.174;6.368;2023-10-08T09:42:55;16.00;99.90
51839;DHT22;37886;53.174;6.368;2023-10-08T09:45:21;16.00;99.90
51839;DHT22;37886;53.174;6.368;2023-10-08T09:47:54;16.00;99.90
51839;DHT22;37886;53.174;6.368;2023-10-08T09:50:32;16.00;99.90
51839;DHT22;37886;53.174;6.368;2023-10-08T09:53:09;16.10;99.90
51839;DHT22;37886;53.174;6.368;2023-10-08T09:55:55;16.10;99.90
51839;DHT22;37886;53.174;6.368;2023-10-08T09:58:30;16.00;99.90
51839;DHT22;37886;53.174;6.368;2023-10-08T10:00:57;16.00;99.90
51839;DHT22;37886;53.174;6.368;2023-10-08T10:03:25;16.00;99.90
51839;DHT22;37886;53.174;6.368;2023-10-08T10:05:52;16.10;99.90
51839;DHT22;37886;53.174;6.368;2023-10-08T10:08:20;16.10;99.90
51839;DHT22;37886;53.174;6.368;2023-10-08T10:10:58;16.30;99.90
51839;DHT22;37886;53.174;6.368;2023-10-08T10:13:27;16.50;99.90
51839;DHT22;37886;53.174;6.368;2023-10-08T10:15:54;16.50;99.90
51839;DHT22;37886;53.174;6.368;2023-10-08T10:20:56;16.60;99.90
51839;DHT22;37886;53.174;6.368;2023-10-08T10:23:40;16.50;99.90
51839;DHT22;37886;53.174;6.368;2023-10-08T10:31:44;16.40;99.90
51839;DHT22;37886;53.174;6.368;2023-10-08T10:34:21;16.50;99.90
51839;DHT22;37886;53.174;6.368;2023-10-08T10:36:49;16.80;99.90
51839;DHT22;37886;53.174;6.368;2023-10-08T10:39:20;16.90;99.90
51839;DHT22;37886;53.174;6.368;2023-10-08T10:41:54;16.90;99.90
51839;DHT22;37886;53.174;6.368;2023-10-08T10:44:26;16.90;99.90
51839;DHT22;37886;53.174;6.368;2023-10-08T10:46:52;16.80;99.90
51839;DHT22;37886;53.174;6.368;2023-10-08T10:49:38;17.10;99.90
51839;DHT22;37886;53.174;6.368;2023-10-08T10:52:24;17.30;99.90
51839;DHT22;37886;53.174;6.368;2023-10-08T10:55:09;17.20;99.90
51839;DHT22;37886;53.174;6.368;2023-10-08T10:57:55;17.10;99.90
51839;DHT22;37886;53.174;6.368;2023-10-08T11:00:25;17.30;99.90
51839;DHT22;37886;53.174;6.368;2023-10-08T11:02:58;17.40;99.90
51839;DHT22;37886;53.174;6.368;2023-10-08T11:05:33;17.70;99.90
51839;DHT22;37886;53.174;6.368;2023-10-08T11:08:04;17.70;99.90
51839;DHT22;37886;53.174;6.368;2023-10-08T11:10:35;17.90;99.90
51839;DHT22;37886;53.174;6.368;2023-10-08T11:13:08;18.00;99.90
51839;DHT22;37886;53.174;6.368;2023-10-08T11:15:44;18.10;99.90
51839;DHT22;37886;53.174;6.368;2023-10-08T11:18:16;18.10;99.90
51839;DHT22;37886;53.174;6.368;2023-10-08T11:20:43;18.00;99.90
51839;DHT22;37886;53.174;6.368;2023-10-08T11:23:31;17.80;99.90
51839;DHT22;37886;53.174;6.368;2023-10-08T11:26:05;17.80;99.90
51839;DHT22;37886;53.174;6.368;2023-10-08T11:28:36;17.70;99.90
51839;DHT22;37886;53.174;6.368;2023-10-08T11:31:09;17.80;99.90
51839;DHT22;37886;53.174;6.368;2023-10-08T11:33:40;17.70;99.90
51839;DHT22;37886;53.174;6.368;2023-10-08T11:36:07;17.40;99.90
51839;DHT22;37886;53.174;6.368;2023-10-08T11:38:44;17.70;99.90
51839;DHT22;37886;53.174;6.368;2023-10-08T11:41:15;17.80;99.90
51839;DHT22;37886;53.174;6.368;2023-10-08T11:43:48;17.90;99.90
51839;DHT22;37886;53.174;6.368;2023-10-08T11:46:23;17.90;99.90
51839;DHT22;37886;53.174;6.368;2023-10-08T11:48:51;17.90;99.90
51839;DHT22;37886;53.174;6.368;2023-10-08T11:51:17;18.00;99.90
51839;DHT22;37886;53.174;6.368;2023-10-08T11:53:44;18.00;99.90
51839;DHT22;37886;53.174;6.368;2023-10-08T11:56:11;17.90;99.90
51839;DHT22;37886;53.174;6.368;2023-10-08T11:58:42;18.10;99.90
51839;DHT22;37886;53.174;6.368;2023-10-08T12:01:11;17.90;99.90
51839;DHT22;37886;53.174;6.368;2023-10-08T12:03:42;18.20;99.90
51839;DHT22;37886;53.174;6.368;2023-10-08T12:06:10;17.80;99.90
51839;DHT22;37886;53.174;6.368;2023-10-08T12:08:41;17.10;99.90
51839;DHT22;37886;53.174;6.368;2023-10-08T12:11:07;17.20;99.90
51839;DHT22;37886;53.174;6.368;2023-10-08T12:13:41;17.40;99.90
51839;DHT22;37886;53.174;6.368;2023-10-08T12:16:16;17.60;99.90
51839;DHT22;37886;53.174;6.368;2023-10-08T12:18:49;17.20;99.90
51839;DHT22;37886;53.174;6.368;2023-10-08T12:21:19;17.40;99.90
51839;DHT22;37886;53.174;6.368;2023-10-08T12:23:45;17.70;99.90
51839;DHT22;37886;53.174;6.368;2023-10-08T12:26:15;18.00;99.90
51839;DHT22;37886;53.174;6.368;2023-10-08T12:28:47;18.40;99.90
51839;DHT22;37886;53.174;6.368;2023-10-08T12:31:18;18.90;99.90
51839;DHT22;37886;53.174;6.368;2023-10-08T12:33:48;19.10;99.90
51839;DHT22;37886;53.174;6.368;2023-10-08T12:36:16;19.60;99.90
51839;DHT22;37886;53.174;6.368;2023-10-08T12:38:43;19.90;99.90
51839;DHT22;37886;53.174;6.368;2023-10-08T12:41:12;20.50;99.90
51839;DHT22;37886;53.174;6.368;2023-10-08T12:43:43;20.90;99.90
51839;DHT22;37886;53.174;6.368;2023-10-08T12:46:13;20.80;99.90
51839;DHT22;37886;53.174;6.368;2023-10-08T12:48:45;20.30;99.90
51839;DHT22;37886;53.174;6.368;2023-10-08T12:51:16;19.90;99.90
51839;DHT22;37886;53.174;6.368;2023-10-08T12:53:43;20.40;99.90
51839;DHT22;37886;53.174;6.368;2023-10-08T12:56:16;20.80;99.90
51839;DHT22;37886;53.174;6.368;2023-10-08T12:58:43;21.50;99.90
51839;DHT22;37886;53.174;6.368;2023-10-08T13:01:14;21.80;99.90
51839;DHT22;37886;53.174;6.368;2023-10-08T13:03:43;22.20;99.90
51839;DHT22;37886;53.174;6.368;2023-10-08T13:06:14;22.10;99.90
51839;DHT22;37886;53.174;6.368;2023-10-08T13:08:56;21.50;99.90
51839;DHT22;37886;53.174;6.368;2023-10-08T13:11:23;21.20;99.90
51839;DHT22;37886;53.174;6.368;2023-10-08T13:16:16;20.90;99.90
51839;DHT22;37886;53.174;6.368;2023-10-08T13:18:42;20.90;99.90
51839;DHT22;37886;53.174;6.368;2023-10-08T13:21:10;21.00;99.90
51839;DHT22;37886;53.174;6.368;2023-10-08T13:23:36;20.90;99.90
51839;DHT22;37886;53.174;6.368;2023-10-08T13:26:02;20.70;99.90
51839;DHT22;37886;53.174;6.368;2023-10-08T13:28:33;20.40;99.90
51839;DHT22;37886;53.174;6.368;2023-10-08T13:31:01;19.90;99.90
51839;DHT22;37886;53.174;6.368;2023-10-08T13:33:36;19.40;99.90
51839;DHT22;37886;53.174;6.368;2023-10-08T13:36:08;19.10;99.90
51839;DHT22;37886;53.174;6.368;2023-10-08T13:38:35;18.80;99.90
51839;DHT22;37886;53.174;6.368;2023-10-08T13:41:02;18.70;99.90
51839;DHT22;37886;53.174;6.368;2023-10-08T13:43:33;18.50;99.90
51839;DHT22;37886;53.174;6.368;2023-10-08T13:46:06;18.50;99.90
51839;DHT22;37886;53.174;6.368;2023-10-08T13:48:50;18.60;99.90
51839;DHT22;37886;53.174;6.368;2023-10-08T13:51:22;18.40;99.90
51839;DHT22;37886;53.174;6.368;2023-10-08T13:53:52;18.40;99.90
51839;DHT22;37886;53.174;6.368;2023-10-08T13:56:22;18.20;99.90
51839;DHT22;37886;53.174;6.368;2023-10-08T13:58:52;18.00;99.90
51839;DHT22;37886;53.174;6.368;2023-10-08T14:01:23;18.10;99.90
51839;DHT22;37886;53.174;6.368;2023-10-08T14:03:51;18.00;99.90
51839;DHT22;37886;53.174;6.368;2023-10-08T14:06:22;18.00;99.90
51839;DHT22;37886;53.174;6.368;2023-10-08T14:08:48;17.90;99.90
51839;DHT22;37886;53.174;6.368;2023-10-08T14:11:23;17.80;99.90
51839;DHT22;37886;53.174;6.368;2023-10-08T14:13:52;17.70;99.90
51839;DHT22;37886;53.174;6.368;2023-10-08T14:16:21;17.60;99.90
51839;DHT22;37886;53.174;6.368;2023-10-08T14:18:52;17.60;99.90
51839;DHT22;37886;53.174;6.368;2023-10-08T14:21:20;17.50;99.90
51839;DHT22;37886;53.174;6.368;2023-10-08T14:23:50;17.50;99.90
51839;DHT22;37886;53.174;6.368;2023-10-08T14:26:18;17.30;99.90
51839;DHT22;37886;53.174;6.368;2023-10-08T14:28:48;17.30;99.90
51839;DHT22;37886;53.174;6.368;2023-10-08T14:31:19;17.30;99.90
51839;DHT22;37886;53.174;6.368;2023-10-08T14:33:48;17.30;99.90
51839;DHT22;37886;53.174;6.368;2023-10-08T14:36:47;17.30;99.90
51839;DHT22;37886;53.174;6.368;2023-10-08T14:39:35;17.20;99.90
51839;DHT22;37886;53.174;6.368;2023-10-08T14:42:20;17.20;99.90
51839;DHT22;37886;53.174;6.368;2023-10-08T14:45:04;17.20;99.90
51839;DHT22;37886;53.174;6.368;2023-10-08T14:47:39;17.30;99.90
51839;DHT22;37886;53.174;6.368;2023-10-08T14:50:05;17.30;99.90
51839;DHT22;37886;53.174;6.368;2023-10-08T14:52:31;17.30;99.90
51839;DHT22;37886;53.174;6.368;2023-10-08T14:54:58;17.30;99.90
51839;DHT22;37886;53.174;6.368;2023-10-08T14:57:24;17.30;99.90
51839;DHT22;37886;53.174;6.368;2023-10-08T14:59:52;17.20;99.90
51839;DHT22;37886;53.174;6.368;2023-10-08T15:02:18;17.10;99.90
51839;DHT22;37886;53.174;6.368;2023-10-08T15:04:43;17.10;99.90
51839;DHT22;37886;53.174;6.368;2023-10-08T15:07:09;17.00;99.90
51839;DHT22;37886;53.174;6.368;2023-10-08T15:09:43;17.00;99.90
51839;DHT22;37886;53.174;6.368;2023-10-08T15:12:10;17.10;99.90
51839;DHT22;37886;53.174;6.368;2023-10-08T15:14:36;17.00;99.90
51839;DHT22;37886;53.174;6.368;2023-10-08T15:17:04;17.00;99.90
51839;DHT22;37886;53.174;6.368;2023-10-08T15:19:30;17.00;99.90
51839;DHT22;37886;53.174;6.368;2023-10-08T15:21:57;17.00;99.90
51839;DHT22;37886;53.174;6.368;2023-10-08T15:24:24;17.00;99.90
51839;DHT22;37886;53.174;6.368;2023-10-08T15:26:53;17.00;99.90
51839;DHT22;37886;53.174;6.368;2023-10-08T15:29:23;17.00;99.90
51839;DHT22;37886;53.174;6.368;2023-10-08T15:31:53;17.10;99.90
51839;DHT22;37886;53.174;6.368;2023-10-08T15:34:22;17.00;99.90
51839;DHT22;37886;53.174;6.368;2023-10-08T15:36:50;16.70;99.90
51839;DHT22;37886;53.174;6.368;2023-10-08T15:39:16;16.60;99.90
51839;DHT22;37886;53.174;6.368;2023-10-08T15:41:52;16.50;99.90
51839;DHT22;37886;53.174;6.368;2023-10-08T15:44:18;16.50;99.90
51839;DHT22;37886;53.174;6.368;2023-10-08T15:46:47;16.50;99.90
51839;DHT22;37886;53.174;6.368;2023-10-08T15:49:13;16.40;99.90
51839;DHT22;37886;53.174;6.368;2023-10-08T15:51:39;16.40;99.90
51839;DHT22;37886;53.174;6.368;2023-10-08T15:54:06;16.40;99.90
51839;DHT22;37886;53.174;6.368;2023-10-08T15:56:32;16.40;99.90
51839;DHT22;37886;53.174;6.368;2023-10-08T15:58:57;16.40;99.90
51839;DHT22;37886;53.174;6.368;2023-10-08T16:01:23;16.30;99.90
51839;DHT22;37886;53.174;6.368;2023-10-08T16:03:51;16.20;99.90
51839;DHT22;37886;53.174;6.368;2023-10-08T16:06:17;16.10;99.90
51839;DHT22;37886;53.174;6.368;2023-10-08T16:08:44;16.10;99.90
51839;DHT22;37886;53.174;6.368;2023-10-08T16:11:10;16.00;99.90
51839;DHT22;37886;53.174;6.368;2023-10-08T16:13:36;16.00;99.90
51839;DHT22;37886;53.174;6.368;2023-10-08T16:16:04;15.90;99.90